createdAt,value
2018-12-23T00:00:24.121Z,7.67
2018-12-23T00:01:24.116Z,7.67
2018-12-23T00:02:24.116Z,7.71
2018-12-23T00:03:24.111Z,7.62
2018-12-23T00:04:24.136Z,7.67
2018-12-23T00:05:24.109Z,7.74
2018-12-23T00:06:24.100Z,7.72
2018-12-23T00:07:24.101Z,7.74
2018-12-23T00:08:24.095Z,7.72
2018-12-23T00:09:24.120Z,7.63
2018-12-23T00:10:24.087Z,7.71
2018-12-23T00:11:24.088Z,7.78
2018-12-23T00:12:24.083Z,7.69
2018-12-23T00:13:24.077Z,7.67
2018-12-23T00:14:24.105Z,7.60
2018-12-23T00:15:24.071Z,7.62
2018-12-23T00:16:24.121Z,7.58
2018-12-23T00:17:24.067Z,7.56
2018-12-23T00:18:24.063Z,7.45
2018-12-23T00:19:24.088Z,7.49
2018-12-23T00:20:24.058Z,7.45
2018-12-23T00:21:24.052Z,7.49
2018-12-23T00:22:24.052Z,7.55
2018-12-23T00:23:24.048Z,7.56
2018-12-23T00:24:24.072Z,7.58
2018-12-23T00:25:24.039Z,7.49
2018-12-23T00:26:24.041Z,7.45
2018-12-23T00:27:24.035Z,7.49
2018-12-23T00:28:24.034Z,7.49
2018-12-23T00:29:24.056Z,7.50
2018-12-23T00:30:24.056Z,7.47
2018-12-23T00:31:24.021Z,7.50
2018-12-23T00:32:24.020Z,7.47
2018-12-23T00:33:25.547Z,7.55
2018-12-23T00:34:24.015Z,7.49
2018-12-23T00:35:24.043Z,7.50
2018-12-23T00:36:24.008Z,7.62
2018-12-23T00:37:24.004Z,7.56
2018-12-23T00:38:24.004Z,7.52
2018-12-23T00:39:23.995Z,7.49
2018-12-23T00:40:24.019Z,7.47
2018-12-23T00:41:23.992Z,7.37
2018-12-23T00:42:23.988Z,7.34
2018-12-23T00:43:23.984Z,7.45
2018-12-23T00:44:23.982Z,7.32
2018-12-23T00:45:24.007Z,7.55
2018-12-23T00:46:23.977Z,7.52
2018-12-23T00:47:23.971Z,7.52
2018-12-23T00:48:23.968Z,7.47
2018-12-23T00:49:23.964Z,7.50
2018-12-23T00:50:23.988Z,7.47
2018-12-23T00:51:23.959Z,7.44
2018-12-23T00:52:23.971Z,7.50
2018-12-23T00:53:23.947Z,7.49
2018-12-23T00:54:23.950Z,7.52
2018-12-23T00:55:23.980Z,7.55
2018-12-23T00:56:23.939Z,7.47
2018-12-23T00:57:23.939Z,7.45
2018-12-23T00:58:23.935Z,7.50
2018-12-23T00:59:23.935Z,7.45
2018-12-23T01:00:23.956Z,7.47
2018-12-23T01:01:23.925Z,7.45
2018-12-23T01:02:23.930Z,7.47
2018-12-23T01:03:23.920Z,7.49
2018-12-23T01:04:23.915Z,7.50
2018-12-23T01:05:28.770Z,7.44
2018-12-23T01:06:23.905Z,7.53
2018-12-23T01:07:23.907Z,7.49
2018-12-23T01:08:23.907Z,7.49
2018-12-23T01:09:23.896Z,7.50
2018-12-23T01:10:23.932Z,7.37
2018-12-23T01:11:23.885Z,7.37
2018-12-23T01:12:23.890Z,7.35
2018-12-23T01:13:23.887Z,7.37
2018-12-23T01:14:23.911Z,7.37
2018-12-23T01:15:23.880Z,7.37
2018-12-23T01:16:23.876Z,7.37
2018-12-23T01:17:23.871Z,7.32
2018-12-23T01:18:23.868Z,7.44
2018-12-23T01:19:23.896Z,7.38
2018-12-23T01:20:23.865Z,7.32
2018-12-23T01:21:23.859Z,7.37
2018-12-23T01:22:23.853Z,7.31
2018-12-23T01:23:23.852Z,7.29
2018-12-23T01:24:23.875Z,7.29
2018-12-23T01:25:23.845Z,7.19
2018-12-23T01:26:23.844Z,7.17
2018-12-23T01:27:23.840Z,7.13
2018-12-23T01:28:23.836Z,7.16
2018-12-23T01:29:23.861Z,7.01
2018-12-23T01:30:23.853Z,6.97
2018-12-23T01:31:23.832Z,6.99
2018-12-23T01:32:23.914Z,6.97
2018-12-23T01:33:23.819Z,6.98
2018-12-23T01:34:23.815Z,6.91
2018-12-23T01:35:23.840Z,6.83
2018-12-23T01:36:23.810Z,6.90
2018-12-23T01:37:23.803Z,6.80
2018-12-23T01:38:23.804Z,6.77
2018-12-23T01:39:23.829Z,6.76
2018-12-23T01:40:23.881Z,6.66
2018-12-23T01:41:23.792Z,6.63
2018-12-23T01:42:23.787Z,6.63
2018-12-23T01:43:23.780Z,6.59
2018-12-23T01:44:23.774Z,6.63
2018-12-23T01:45:23.803Z,6.65
2018-12-23T01:46:23.772Z,6.71
2018-12-23T01:47:23.767Z,6.71
2018-12-23T01:48:23.768Z,6.65
2018-12-23T01:49:23.759Z,6.66
2018-12-23T01:50:23.784Z,6.65
2018-12-23T01:51:23.755Z,6.68
2018-12-23T01:52:23.752Z,6.62
2018-12-23T01:53:23.743Z,6.59
2018-12-23T01:54:23.748Z,6.66
2018-12-23T01:55:23.768Z,6.58
2018-12-23T01:56:23.734Z,6.56
2018-12-23T01:57:23.733Z,6.69
2018-12-23T01:58:23.724Z,6.61
2018-12-23T01:59:23.728Z,6.61
2018-12-23T02:00:23.757Z,6.59
2018-12-23T02:01:23.724Z,6.61
2018-12-23T02:02:23.711Z,6.71
2018-12-23T02:03:23.705Z,6.77
2018-12-23T02:04:23.705Z,6.73
2018-12-23T02:05:23.728Z,6.87
2018-12-23T02:06:23.696Z,6.91
2018-12-23T02:07:23.698Z,6.90
2018-12-23T02:08:23.692Z,6.86
2018-12-23T02:09:23.676Z,6.80
2018-12-23T02:10:23.717Z,6.86
2018-12-23T02:11:23.680Z,6.98
2018-12-23T02:12:23.676Z,6.89
2018-12-23T02:13:23.667Z,6.86
2018-12-23T02:14:23.670Z,6.97
2018-12-23T02:15:23.694Z,6.97
2018-12-23T02:16:23.660Z,6.86
2018-12-23T02:17:23.657Z,6.90
2018-12-23T02:18:23.661Z,6.97
2018-12-23T02:19:23.676Z,6.98
2018-12-23T02:20:23.643Z,6.94
2018-12-23T02:21:23.641Z,7.02
2018-12-23T02:22:23.639Z,6.98
2018-12-23T02:23:23.635Z,7.02
2018-12-23T02:24:23.663Z,6.99
2018-12-23T02:25:23.627Z,6.97
2018-12-23T02:26:23.618Z,7.02
2018-12-23T02:27:23.621Z,7.09
2018-12-23T02:28:23.615Z,7.02
2018-12-23T02:29:23.639Z,7.08
2018-12-23T02:30:23.600Z,7.01
2018-12-23T02:31:23.607Z,7.01
2018-12-23T02:32:23.608Z,7.04
2018-12-23T02:33:23.600Z,7.08
2018-12-23T02:34:23.625Z,7.08
2018-12-23T02:35:23.594Z,7.07
2018-12-23T02:36:23.588Z,7.13
2018-12-23T02:37:23.586Z,7.01
2018-12-23T02:38:23.579Z,7.09
2018-12-23T02:39:23.604Z,7.02
2018-12-23T02:40:23.574Z,7.09
2018-12-23T02:41:31.279Z,7.08
2018-12-23T02:42:23.567Z,7.12
2018-12-23T02:43:23.564Z,7.09
2018-12-23T02:44:23.585Z,7.09
2018-12-23T02:45:23.556Z,7.07
2018-12-23T02:46:23.552Z,7.17
2018-12-23T02:47:23.548Z,7.17
2018-12-23T02:48:23.543Z,7.05
2018-12-23T02:49:23.572Z,7.08
2018-12-23T02:50:23.541Z,7.15
2018-12-23T02:51:23.537Z,7.01
2018-12-23T02:52:23.532Z,7.09
2018-12-23T02:53:23.528Z,7.02
2018-12-23T02:54:23.553Z,7.08
2018-12-23T02:55:23.522Z,7.04
2018-12-23T02:56:23.518Z,6.94
2018-12-23T02:57:23.521Z,7.08
2018-12-23T02:58:23.507Z,6.99
2018-12-23T02:59:23.535Z,7.09
2018-12-23T03:00:23.503Z,7.05
2018-12-23T03:01:23.500Z,6.99
2018-12-23T03:02:23.492Z,7.05
2018-12-23T03:03:23.489Z,7.04
2018-12-23T03:04:23.535Z,7.08
2018-12-23T03:05:23.486Z,7.07
2018-12-23T03:06:23.484Z,7.05
2018-12-23T03:07:23.481Z,7.08
2018-12-23T03:08:23.476Z,7.16
2018-12-23T03:09:23.502Z,7.17
2018-12-23T03:10:23.468Z,7.19
2018-12-23T03:11:23.497Z,7.15
2018-12-23T03:12:23.456Z,7.17
2018-12-23T03:13:23.457Z,7.08
2018-12-23T03:14:23.455Z,7.07
2018-12-23T03:15:23.484Z,7.01
2018-12-23T03:16:23.448Z,6.99
2018-12-23T03:17:23.444Z,7.09
2018-12-23T03:18:23.440Z,7.09
2018-12-23T03:19:23.435Z,7.08
2018-12-23T03:20:23.459Z,7.07
2018-12-23T03:21:23.427Z,7.12
2018-12-23T03:22:23.428Z,7.09
2018-12-23T03:23:23.423Z,7.08
2018-12-23T03:24:23.415Z,7.07
2018-12-23T03:25:23.438Z,7.08
2018-12-23T03:26:23.421Z,7.08
2018-12-23T03:27:23.414Z,7.09
2018-12-23T03:28:23.407Z,7.05
2018-12-23T03:29:23.409Z,7.08
2018-12-23T03:30:23.428Z,7.05
2018-12-23T03:31:23.415Z,7.05
2018-12-23T03:32:23.397Z,7.12
2018-12-23T03:33:23.391Z,7.04
2018-12-23T03:34:23.388Z,7.08
2018-12-23T03:35:23.407Z,7.08
2018-12-23T03:36:23.378Z,7.08
2018-12-23T03:37:23.378Z,7.08
2018-12-23T03:38:23.375Z,7.07
2018-12-23T03:39:23.367Z,7.07
2018-12-23T03:40:23.395Z,6.97
2018-12-23T03:41:23.362Z,7.08
2018-12-23T03:42:23.355Z,7.08
2018-12-23T03:43:23.358Z,7.05
2018-12-23T03:44:23.350Z,6.98
2018-12-23T03:45:23.377Z,7.01
2018-12-23T03:46:23.339Z,7.07
2018-12-23T03:47:23.341Z,7.07
2018-12-23T03:48:23.341Z,6.94
2018-12-23T03:49:23.331Z,7.07
2018-12-23T03:50:23.361Z,7.08
2018-12-23T03:51:23.320Z,7.04
2018-12-23T03:52:23.323Z,6.99
2018-12-23T03:53:24.294Z,6.95
2018-12-23T03:54:23.315Z,6.95
2018-12-23T03:55:23.343Z,6.97
2018-12-23T03:56:23.307Z,6.94
2018-12-23T03:57:23.305Z,6.95
2018-12-23T03:58:23.299Z,6.95
2018-12-23T03:59:23.298Z,6.97
2018-12-23T04:00:23.323Z,6.98
2018-12-23T04:01:23.290Z,7.04
2018-12-23T04:02:23.287Z,6.95
2018-12-23T04:03:23.284Z,6.99
2018-12-23T04:04:23.275Z,6.99
2018-12-23T04:05:23.309Z,6.98
2018-12-23T04:06:24.857Z,6.97
2018-12-23T04:07:23.270Z,6.98
2018-12-23T04:08:23.263Z,6.99
2018-12-23T04:09:23.262Z,6.99
2018-12-23T04:10:23.286Z,6.98
2018-12-23T04:11:23.254Z,6.89
2018-12-23T04:12:23.279Z,6.89
2018-12-23T04:13:29.161Z,6.94
2018-12-23T04:14:23.242Z,6.94
2018-12-23T04:15:23.281Z,6.90
2018-12-23T04:16:23.234Z,6.86
2018-12-23T04:17:23.241Z,6.83
2018-12-23T04:18:23.231Z,6.79
2018-12-23T04:19:23.226Z,6.79
2018-12-23T04:20:23.248Z,6.84
2018-12-23T04:21:23.219Z,6.72
2018-12-23T04:22:23.210Z,6.79
2018-12-23T04:23:23.216Z,6.80
2018-12-23T04:24:23.206Z,6.77
2018-12-23T04:25:23.240Z,6.77
2018-12-23T04:26:23.208Z,6.69
2018-12-23T04:27:23.197Z,6.63
2018-12-23T04:28:23.194Z,6.73
2018-12-23T04:29:23.191Z,6.76
2018-12-23T04:30:23.212Z,6.76
2018-12-23T04:31:23.202Z,6.86
2018-12-23T04:32:23.180Z,6.76
2018-12-23T04:33:23.199Z,6.72
2018-12-23T04:34:23.176Z,6.81
2018-12-23T04:35:23.196Z,6.77
2018-12-23T04:36:23.170Z,6.86
2018-12-23T04:37:23.165Z,6.80
2018-12-23T04:38:23.162Z,6.91
2018-12-23T04:39:23.153Z,6.79
2018-12-23T04:40:23.181Z,6.81
2018-12-23T04:41:23.151Z,6.79
2018-12-23T04:42:23.141Z,6.80
2018-12-23T04:43:23.141Z,6.83
2018-12-23T04:44:23.133Z,6.80
2018-12-23T04:45:23.159Z,6.89
2018-12-23T04:46:23.132Z,6.79
2018-12-23T04:47:23.128Z,6.79
2018-12-23T04:48:23.120Z,6.80
2018-12-23T04:49:23.118Z,6.72
2018-12-23T04:50:23.141Z,6.68
2018-12-23T04:51:23.111Z,6.84
2018-12-23T04:52:23.106Z,6.69
2018-12-23T04:53:23.108Z,6.87
2018-12-23T04:54:23.130Z,6.83
2018-12-23T04:55:25.260Z,6.79
2018-12-23T04:56:23.094Z,6.86
2018-12-23T04:57:23.087Z,6.81
2018-12-23T04:58:23.115Z,6.87
2018-12-23T04:59:23.090Z,6.81
2018-12-23T05:00:23.106Z,6.68
2018-12-23T05:01:23.076Z,6.79
2018-12-23T05:02:23.070Z,6.79
2018-12-23T05:03:23.070Z,6.69
2018-12-23T05:04:23.074Z,6.69
2018-12-23T05:05:23.097Z,6.59
2018-12-23T05:06:23.057Z,6.65
2018-12-23T05:07:23.050Z,6.61
2018-12-23T05:08:23.053Z,6.61
2018-12-23T05:09:23.047Z,6.54
2018-12-23T05:10:23.071Z,6.54
2018-12-23T05:11:23.035Z,6.50
2018-12-23T05:12:23.040Z,6.36
2018-12-23T05:13:23.027Z,6.32
2018-12-23T05:14:23.028Z,6.30
2018-12-23T05:15:23.053Z,6.30
2018-12-23T05:16:23.018Z,6.14
2018-12-23T05:17:23.020Z,6.11
2018-12-23T05:18:23.007Z,6.10
2018-12-23T05:19:23.008Z,6.22
2018-12-23T05:20:23.037Z,6.22
2018-12-23T05:21:23.013Z,6.18
2018-12-23T05:22:22.994Z,6.22
2018-12-23T05:23:22.987Z,6.28
2018-12-23T05:24:23.014Z,6.28
2018-12-23T05:25:23.113Z,6.26
2018-12-23T05:26:22.979Z,6.16
2018-12-23T05:27:22.973Z,6.18
2018-12-23T05:28:22.999Z,6.21
2018-12-23T05:29:22.974Z,6.14
2018-12-23T05:30:22.997Z,6.14
2018-12-23T05:31:22.964Z,6.04
2018-12-23T05:32:22.954Z,6.10
2018-12-23T05:33:22.955Z,6.07
2018-12-23T05:34:22.951Z,6.00
2018-12-23T05:35:22.974Z,6.03
2018-12-23T05:36:22.932Z,6.03
2018-12-23T05:37:22.934Z,6.04
2018-12-23T05:38:22.928Z,6.03
2018-12-23T05:39:22.958Z,5.98
2018-12-23T05:40:22.921Z,6.07
2018-12-23T05:41:22.921Z,6.00
2018-12-23T05:42:22.919Z,6.01
2018-12-23T05:43:22.910Z,6.00
2018-12-23T05:44:22.938Z,6.01
2018-12-23T05:45:22.902Z,5.95
2018-12-23T05:46:22.901Z,6.00
2018-12-23T05:47:22.899Z,6.00
2018-12-23T05:48:22.889Z,6.01
2018-12-23T05:49:22.929Z,5.98
2018-12-23T05:50:22.886Z,5.93
2018-12-23T05:51:22.882Z,5.91
2018-12-23T05:52:23.899Z,5.88
2018-12-23T05:53:22.871Z,5.95
2018-12-23T05:54:22.893Z,5.96
2018-12-23T05:55:22.866Z,5.96
2018-12-23T05:56:22.861Z,5.96
2018-12-23T05:57:22.860Z,5.95
2018-12-23T05:58:22.849Z,5.78
2018-12-23T05:59:22.882Z,5.86
2018-12-23T06:00:22.837Z,5.77
2018-12-23T06:01:22.837Z,5.81
2018-12-23T06:02:22.833Z,5.85
2018-12-23T06:03:22.857Z,5.77
2018-12-23T06:04:22.822Z,5.81
2018-12-23T06:05:22.845Z,5.95
2018-12-23T06:06:22.812Z,5.93
2018-12-23T06:07:22.810Z,5.92
2018-12-23T06:08:22.809Z,5.89
2018-12-23T06:09:22.803Z,6.01
2018-12-23T06:10:22.825Z,6.09
2018-12-23T06:11:22.798Z,6.14
2018-12-23T06:12:22.794Z,6.21
2018-12-23T06:13:22.792Z,6.14
2018-12-23T06:14:22.786Z,6.26
2018-12-23T06:15:22.821Z,6.38
2018-12-23T06:16:22.779Z,6.35
2018-12-23T06:17:22.777Z,6.36
2018-12-23T06:18:22.779Z,6.38
2018-12-23T06:19:22.765Z,6.35
2018-12-23T06:20:22.789Z,6.33
2018-12-23T06:21:22.757Z,6.35
2018-12-23T06:22:22.761Z,6.38
2018-12-23T06:23:22.760Z,6.38
2018-12-23T06:24:22.764Z,6.40
2018-12-23T06:25:22.741Z,6.35
2018-12-23T06:26:22.737Z,6.48
2018-12-23T06:27:22.729Z,6.50
2018-12-23T06:28:22.728Z,6.48
2018-12-23T06:29:22.754Z,6.56
2018-12-23T06:30:22.721Z,6.54
2018-12-23T06:31:22.715Z,6.51
2018-12-23T06:32:22.710Z,6.59
2018-12-23T06:33:22.710Z,6.51
2018-12-23T06:34:22.732Z,6.54
2018-12-23T06:35:22.702Z,6.47
2018-12-23T06:36:22.698Z,6.56
2018-12-23T06:37:22.740Z,6.59
2018-12-23T06:38:22.688Z,6.51
2018-12-23T06:39:22.712Z,6.61
2018-12-23T06:40:22.679Z,6.69
2018-12-23T06:41:22.677Z,6.53
2018-12-23T06:42:22.675Z,6.54
2018-12-23T06:43:22.669Z,6.59
2018-12-23T06:44:22.694Z,6.61
2018-12-23T06:45:23.164Z,6.58
2018-12-23T06:46:22.657Z,6.59
2018-12-23T06:47:22.651Z,6.66
2018-12-23T06:48:22.652Z,6.66
2018-12-23T06:49:22.672Z,6.61
2018-12-23T06:50:22.642Z,6.72
2018-12-23T06:51:22.637Z,6.72
2018-12-23T06:52:22.633Z,6.63
2018-12-23T06:53:22.631Z,6.69
2018-12-23T06:54:22.760Z,6.71
2018-12-23T06:55:22.624Z,6.68
2018-12-23T06:56:22.620Z,6.77
2018-12-23T06:57:22.619Z,6.79
2018-12-23T06:58:22.612Z,6.77
2018-12-23T06:59:22.637Z,6.81
2018-12-23T07:00:22.604Z,6.76
2018-12-23T07:01:22.600Z,6.81
2018-12-23T07:02:23.304Z,6.81
2018-12-23T07:03:22.598Z,6.76
2018-12-23T07:04:22.635Z,6.76
2018-12-23T07:05:22.587Z,6.83
2018-12-23T07:06:22.584Z,6.84
2018-12-23T07:07:22.580Z,6.91
2018-12-23T07:08:22.580Z,6.84
2018-12-23T07:09:22.603Z,6.89
2018-12-23T07:10:22.568Z,6.83
2018-12-23T07:11:22.573Z,6.72
2018-12-23T07:12:22.725Z,6.80
2018-12-23T07:13:23.203Z,6.81
2018-12-23T07:14:22.584Z,6.80
2018-12-23T07:15:23.243Z,6.80
2018-12-23T07:16:24.168Z,6.89
2018-12-23T07:17:22.544Z,6.86
2018-12-23T07:18:23.299Z,6.80
2018-12-23T07:19:22.921Z,6.84
2018-12-23T07:20:22.531Z,6.90
2018-12-23T07:21:23.177Z,6.87
2018-12-23T07:22:23.367Z,6.84
2018-12-23T07:23:22.524Z,6.89
2018-12-23T07:24:24.182Z,6.87
2018-12-23T07:25:22.516Z,6.87
2018-12-23T07:26:22.514Z,6.87
2018-12-23T07:27:22.512Z,6.86
2018-12-23T07:28:22.503Z,6.80
2018-12-23T07:29:22.881Z,6.86
2018-12-23T07:30:23.243Z,6.84
2018-12-23T07:31:22.495Z,6.84
2018-12-23T07:32:22.491Z,6.79
2018-12-23T07:33:22.492Z,6.80
2018-12-23T07:34:22.515Z,6.91
2018-12-23T07:35:22.477Z,6.80
2018-12-23T07:36:22.480Z,6.77
2018-12-23T07:37:27.422Z,6.90
2018-12-23T07:38:22.467Z,6.94
2018-12-23T07:39:22.793Z,6.77
2018-12-23T07:40:22.466Z,6.80
2018-12-23T07:41:22.459Z,6.90
2018-12-23T07:42:22.459Z,6.95
2018-12-23T07:43:22.447Z,6.90
2018-12-23T07:44:22.475Z,6.94
2018-12-23T07:45:22.443Z,6.91
2018-12-23T07:46:22.440Z,6.97
2018-12-23T07:47:22.444Z,6.97
2018-12-23T07:48:22.427Z,6.94
2018-12-23T07:49:22.460Z,6.99
2018-12-23T07:50:22.455Z,7.02
2018-12-23T07:51:22.419Z,6.99
2018-12-23T07:52:22.423Z,6.99
2018-12-23T07:53:22.418Z,6.95
2018-12-23T07:54:22.411Z,7.05
2018-12-23T07:55:22.441Z,6.98
2018-12-23T07:56:22.407Z,7.02
2018-12-23T07:57:22.409Z,6.98
2018-12-23T07:58:22.399Z,7.02
2018-12-23T07:59:22.393Z,7.09
2018-12-23T08:00:22.423Z,7.02
2018-12-23T08:01:22.430Z,7.05
2018-12-23T08:02:22.387Z,7.08
2018-12-23T08:03:22.384Z,7.13
2018-12-23T08:04:22.376Z,7.13
2018-12-23T08:05:22.407Z,7.13
2018-12-23T08:06:22.370Z,7.16
2018-12-23T08:07:22.368Z,7.08
2018-12-23T08:08:22.366Z,7.09
2018-12-23T08:09:22.362Z,7.07
2018-12-23T08:10:22.387Z,7.04
2018-12-23T08:11:22.355Z,7.09
2018-12-23T08:12:22.352Z,7.13
2018-12-23T08:13:22.352Z,7.19
2018-12-23T08:14:22.347Z,7.15
2018-12-23T08:15:22.370Z,7.20
2018-12-23T08:16:22.340Z,7.19
2018-12-23T08:17:22.333Z,7.23
2018-12-23T08:18:22.334Z,7.22
2018-12-23T08:19:22.331Z,7.17
2018-12-23T08:20:22.354Z,7.24
2018-12-23T08:21:22.326Z,7.15
2018-12-23T08:22:22.321Z,7.20
2018-12-23T08:23:22.316Z,7.20
2018-12-23T08:24:22.310Z,7.23
2018-12-23T08:25:22.339Z,7.19
2018-12-23T08:26:22.335Z,7.32
2018-12-23T08:27:22.302Z,7.23
2018-12-23T08:28:22.302Z,7.29
2018-12-23T08:29:22.302Z,7.27
2018-12-23T08:30:22.298Z,7.35
2018-12-23T08:31:22.324Z,7.26
2018-12-23T08:32:22.286Z,7.40
2018-12-23T08:33:22.279Z,7.41
2018-12-23T08:34:22.282Z,7.41
2018-12-23T08:35:22.275Z,7.45
2018-12-23T08:36:22.299Z,7.38
2018-12-23T08:37:22.274Z,7.47
2018-12-23T08:38:22.271Z,7.47
2018-12-23T08:39:22.271Z,7.49
2018-12-23T08:40:22.263Z,7.50
2018-12-23T08:41:22.290Z,7.50
2018-12-23T08:42:22.258Z,7.50
2018-12-23T08:43:22.258Z,7.50
2018-12-23T08:44:22.255Z,7.53
2018-12-23T08:45:22.250Z,7.44
2018-12-23T08:46:22.284Z,7.56
2018-12-23T08:47:22.245Z,7.56
2018-12-23T08:48:22.243Z,7.67
2018-12-23T08:49:22.242Z,7.69
2018-12-23T08:50:22.266Z,7.71
2018-12-23T08:51:22.239Z,7.69
2018-12-23T08:52:22.230Z,7.71
2018-12-23T08:53:22.226Z,7.71
2018-12-23T08:54:22.226Z,7.72
2018-12-23T08:55:22.262Z,7.63
2018-12-23T08:56:22.222Z,7.77
2018-12-23T08:57:22.218Z,7.77
2018-12-23T08:58:22.223Z,7.66
2018-12-23T08:59:22.216Z,7.67
2018-12-23T09:00:22.247Z,7.69
2018-12-23T09:01:22.210Z,7.62
2018-12-23T09:02:22.210Z,7.67
2018-12-23T09:03:22.205Z,7.62
2018-12-23T09:04:22.204Z,7.62
2018-12-23T09:05:22.228Z,7.72
2018-12-23T09:06:22.201Z,7.74
2018-12-23T09:07:22.194Z,7.67
2018-12-23T09:08:22.194Z,7.72
2018-12-23T09:09:22.190Z,7.67
2018-12-23T09:10:22.214Z,7.74
2018-12-23T09:11:22.185Z,7.69
2018-12-23T09:12:22.184Z,7.69
2018-12-23T09:13:22.181Z,7.69
2018-12-23T09:14:22.180Z,7.66
2018-12-23T09:15:22.207Z,7.72
2018-12-23T09:16:22.171Z,7.60
2018-12-23T09:17:22.174Z,7.63
2018-12-23T09:18:22.165Z,7.74
2018-12-23T09:19:22.171Z,7.74
2018-12-23T09:20:23.172Z,7.84
2018-12-23T09:21:22.166Z,7.74
2018-12-23T09:22:22.163Z,7.77
2018-12-23T09:23:22.153Z,7.82
2018-12-23T09:24:22.151Z,7.75
2018-12-23T09:25:22.182Z,7.77
2018-12-23T09:26:22.145Z,7.75
2018-12-23T09:27:22.147Z,7.77
2018-12-23T09:28:22.142Z,7.82
2018-12-23T09:29:22.139Z,7.77
2018-12-23T09:30:22.158Z,7.79
2018-12-23T09:31:22.134Z,7.82
2018-12-23T09:32:22.129Z,7.84
2018-12-23T09:33:22.807Z,7.94
2018-12-23T09:34:22.129Z,7.93
2018-12-23T09:35:22.154Z,7.94
2018-12-23T09:36:22.120Z,7.90
2018-12-23T09:37:22.126Z,8.02
2018-12-23T09:38:22.112Z,8.00
2018-12-23T09:39:22.109Z,8.00
2018-12-23T09:40:22.142Z,7.99
2018-12-23T09:41:22.100Z,7.97
2018-12-23T09:42:22.106Z,8.07
2018-12-23T09:43:22.098Z,8.02
2018-12-23T09:44:22.100Z,8.04
2018-12-23T09:45:22.126Z,7.94
2018-12-23T09:46:22.094Z,7.93
2018-12-23T09:47:22.094Z,8.00
2018-12-23T09:48:22.089Z,7.99
2018-12-23T09:49:22.090Z,7.93
2018-12-23T09:50:22.118Z,7.90
2018-12-23T09:51:22.082Z,7.94
2018-12-23T09:52:22.077Z,7.92
2018-12-23T09:53:22.076Z,8.02
2018-12-23T09:54:22.077Z,8.03
2018-12-23T09:55:22.109Z,7.93
2018-12-23T09:56:22.068Z,7.93
2018-12-23T09:57:22.097Z,7.87
2018-12-23T09:58:22.066Z,7.89
2018-12-23T09:59:22.065Z,7.96
2018-12-23T10:00:22.089Z,7.90
2018-12-23T10:01:22.059Z,8.11
2018-12-23T10:02:22.058Z,8.02
2018-12-23T10:03:22.053Z,8.02
2018-12-23T10:04:22.049Z,8.08
2018-12-23T10:05:22.073Z,8.10
2018-12-23T10:06:22.051Z,8.04
2018-12-23T10:07:22.040Z,7.96
2018-12-23T10:08:22.038Z,8.12
2018-12-23T10:09:22.043Z,8.03
2018-12-23T10:10:28.378Z,7.99
2018-12-23T10:11:22.062Z,8.07
2018-12-23T10:12:22.027Z,7.96
2018-12-23T10:13:22.024Z,8.04
2018-12-23T10:14:22.025Z,8.03
2018-12-23T10:15:22.033Z,8.11
2018-12-23T10:16:22.049Z,8.14
2018-12-23T10:17:22.019Z,8.04
2018-12-23T10:18:22.013Z,8.14
2018-12-23T10:19:22.011Z,8.07
2018-12-23T10:20:22.013Z,7.96
2018-12-23T10:21:22.039Z,8.07
2018-12-23T10:22:22.002Z,7.97
2018-12-23T10:23:22.002Z,7.93
2018-12-23T10:24:21.998Z,7.94
2018-12-23T10:25:21.996Z,7.94
2018-12-23T10:26:22.025Z,7.93
2018-12-23T10:27:21.989Z,8.07
2018-12-23T10:28:21.986Z,8.07
2018-12-23T10:29:21.985Z,8.14
2018-12-23T10:30:21.978Z,8.08
2018-12-23T10:31:22.009Z,8.17
2018-12-23T10:32:21.977Z,8.25
2018-12-23T10:33:21.969Z,8.28
2018-12-23T10:34:21.969Z,8.35
2018-12-23T10:35:21.969Z,8.26
2018-12-23T10:36:21.997Z,8.32
2018-12-23T10:37:21.969Z,8.26
2018-12-23T10:38:21.963Z,8.35
2018-12-23T10:39:21.962Z,8.29
2018-12-23T10:40:21.961Z,8.28
2018-12-23T10:41:21.981Z,8.22
2018-12-23T10:42:21.954Z,8.25
2018-12-23T10:43:21.949Z,8.26
2018-12-23T10:44:21.946Z,8.32
2018-12-23T10:45:21.945Z,8.22
2018-12-23T10:46:21.969Z,8.21
2018-12-23T10:47:21.934Z,8.22
2018-12-23T10:48:21.939Z,8.17
2018-12-23T10:49:21.933Z,8.21
2018-12-23T10:50:21.930Z,8.20
2018-12-23T10:51:21.958Z,8.18
2018-12-23T10:52:21.924Z,8.20
2018-12-23T10:53:21.926Z,8.20
2018-12-23T10:54:21.923Z,8.17
2018-12-23T10:55:21.923Z,8.28
2018-12-23T10:56:21.947Z,8.35
2018-12-23T10:57:21.917Z,8.42
2018-12-23T10:58:21.913Z,8.45
2018-12-23T10:59:21.906Z,8.47
2018-12-23T11:00:21.910Z,8.68
2018-12-23T11:01:21.942Z,8.54
2018-12-23T11:02:21.905Z,8.60
2018-12-23T11:03:21.903Z,8.72
2018-12-23T11:04:21.904Z,8.75
2018-12-23T11:05:21.895Z,8.71
2018-12-23T11:06:21.927Z,8.76
2018-12-23T11:07:21.893Z,8.84
2018-12-23T11:08:26.835Z,8.91
2018-12-23T11:09:21.891Z,8.91
2018-12-23T11:10:21.889Z,8.91
2018-12-23T11:11:21.917Z,8.94
2018-12-23T11:12:21.888Z,8.96
2018-12-23T11:13:21.889Z,8.96
2018-12-23T11:14:21.881Z,8.96
2018-12-23T11:15:21.881Z,9.02
2018-12-23T11:16:21.914Z,9.04
2018-12-23T11:17:21.877Z,9.24
2018-12-23T11:18:21.875Z,9.31
2018-12-23T11:19:21.884Z,9.27
2018-12-23T11:20:21.874Z,9.25
2018-12-23T11:21:21.906Z,9.15
2018-12-23T11:22:21.873Z,9.24
2018-12-23T11:23:21.873Z,9.15
2018-12-23T11:24:21.870Z,8.97
2018-12-23T11:25:21.869Z,8.93
2018-12-23T11:26:21.900Z,8.99
2018-12-23T11:27:21.868Z,8.91
2018-12-23T11:28:21.868Z,8.90
2018-12-23T11:29:21.869Z,8.78
2018-12-23T11:30:21.865Z,8.73
2018-12-23T11:31:21.896Z,8.78
2018-12-23T11:32:21.868Z,8.76
2018-12-23T11:33:21.867Z,8.79
2018-12-23T11:34:21.861Z,8.71
2018-12-23T11:35:21.862Z,8.68
2018-12-23T11:36:21.886Z,8.75
2018-12-23T11:37:21.850Z,8.68
2018-12-23T11:38:21.851Z,8.72
2018-12-23T11:39:21.853Z,8.72
2018-12-23T11:40:21.848Z,8.76
2018-12-23T11:41:21.876Z,8.81
2018-12-23T11:42:21.848Z,8.78
2018-12-23T11:43:21.845Z,8.73
2018-12-23T11:44:21.838Z,8.78
2018-12-23T11:45:21.840Z,8.68
2018-12-23T11:46:21.870Z,8.68
2018-12-23T11:47:21.841Z,8.66
2018-12-23T11:48:21.834Z,8.63
2018-12-23T11:49:21.832Z,8.54
2018-12-23T11:50:21.828Z,8.45
2018-12-23T11:51:21.854Z,8.32
2018-12-23T11:52:21.853Z,8.26
2018-12-23T11:53:21.825Z,8.25
2018-12-23T11:54:21.821Z,8.08
2018-12-23T11:55:21.821Z,8.00
2018-12-23T11:56:21.844Z,7.90
2018-12-23T11:57:21.814Z,7.89
2018-12-23T11:58:21.812Z,7.78
2018-12-23T11:59:21.808Z,7.66
2018-12-23T12:00:21.807Z,7.63
2018-12-23T12:01:21.832Z,7.69
2018-12-23T12:02:21.799Z,7.58
2018-12-23T12:03:21.802Z,7.59
2018-12-23T12:04:21.794Z,7.56
2018-12-23T12:05:21.788Z,7.44
2018-12-23T12:06:21.820Z,7.53
2018-12-23T12:07:21.788Z,7.47
2018-12-23T12:08:21.786Z,7.47
2018-12-23T12:09:21.787Z,7.55
2018-12-23T12:10:21.781Z,7.55
2018-12-23T12:11:21.820Z,7.60
2018-12-23T12:12:21.772Z,7.60
2018-12-23T12:13:21.765Z,7.63
2018-12-23T12:14:21.769Z,7.74
2018-12-23T12:15:21.764Z,7.75
2018-12-23T12:16:21.785Z,7.79
2018-12-23T12:17:21.756Z,7.84
2018-12-23T12:18:21.757Z,7.85
2018-12-23T12:19:21.759Z,7.85
2018-12-23T12:20:21.752Z,7.85
2018-12-23T12:21:21.775Z,7.93
2018-12-23T12:22:21.744Z,7.92
2018-12-23T12:23:21.740Z,7.94
2018-12-23T12:24:21.733Z,7.99
2018-12-23T12:25:21.732Z,8.00
2018-12-23T12:26:21.797Z,7.92
2018-12-23T12:27:21.766Z,7.87
2018-12-23T12:28:21.731Z,7.92
2018-12-23T12:29:21.721Z,7.85
2018-12-23T12:30:21.722Z,7.84
2018-12-23T12:31:21.749Z,7.81
2018-12-23T12:32:21.712Z,7.84
2018-12-23T12:33:21.713Z,7.82
2018-12-23T12:34:21.710Z,7.82
2018-12-23T12:35:21.704Z,7.78
2018-12-23T12:36:21.733Z,7.82
2018-12-23T12:37:21.700Z,7.79
2018-12-23T12:38:21.701Z,7.81
2018-12-23T12:39:21.693Z,7.81
2018-12-23T12:40:21.693Z,7.84
2018-12-23T12:41:21.718Z,7.82
2018-12-23T12:42:21.686Z,7.89
2018-12-23T12:43:21.685Z,7.84
2018-12-23T12:44:21.680Z,7.89
2018-12-23T12:45:21.678Z,7.77
2018-12-23T12:46:21.705Z,7.96
2018-12-23T12:47:21.669Z,7.97
2018-12-23T12:48:21.669Z,7.84
2018-12-23T12:49:21.669Z,7.85
2018-12-23T12:50:21.661Z,7.90
2018-12-23T12:51:21.689Z,7.85
2018-12-23T12:52:21.657Z,7.85
2018-12-23T12:53:21.654Z,7.87
2018-12-23T12:54:21.649Z,7.82
2018-12-23T12:55:21.650Z,7.82
2018-12-23T12:56:21.673Z,7.78
2018-12-23T12:57:21.641Z,7.82
2018-12-23T12:58:21.641Z,7.85
2018-12-23T12:59:21.668Z,7.85
2018-12-23T13:00:21.634Z,7.81
2018-12-23T13:01:21.629Z,7.84
2018-12-23T13:02:21.661Z,7.94
2018-12-23T13:03:21.625Z,7.89
2018-12-23T13:04:21.623Z,7.92
2018-12-23T13:05:21.632Z,7.85
2018-12-23T13:06:21.645Z,7.90
2018-12-23T13:07:21.613Z,7.94
2018-12-23T13:08:21.605Z,7.85
2018-12-23T13:09:21.637Z,7.99
2018-12-23T13:10:21.606Z,7.96
2018-12-23T13:11:22.321Z,8.04
2018-12-23T13:12:21.630Z,7.94
2018-12-23T13:13:21.597Z,7.94
2018-12-23T13:14:21.601Z,8.00
2018-12-23T13:15:22.331Z,7.94
2018-12-23T13:16:21.589Z,7.93
2018-12-23T13:17:21.617Z,8.10
2018-12-23T13:18:21.590Z,8.11